< < Back
Terminal Aerodrome Forecast


Current Version              Previous Versions:   1  2  3  4  5  6  7  8  9  

Terminal Aerodrome Forecast

943
FTUS42 KTAE 291737
TAFDHN
TAF
KDHN 291737Z 2918/3018 19005KT P6SM SCT040
     FM300000 22004KT P6SM SCT250
     FM300800 00000KT 3SM BR SCT003
     FM301400 17008KT P6SM SCT030=

Latest METAR

631
SAUS70 KWBC 301900 RRM
MTRDHN
METAR KDHN 301853Z 17012G18KT 10SM CLR 30/18 A2995 RMK AO2 SLP136
T03000178


USA.gov is the U.S. government's official web portal to all federal, state and local government web resources and services.